Time;durP1;ratioP1;P1;durP2;ratioP2;P2;SDS_P1;SDS_P2;PMS_P1;PMS_P2;Temp;Humidity;BMP_temperature;BMP_pressure;BME280_temperature;BME280_humidity;BME280_pressure;Samples;Min_cycle;Max_cycle;Signal;HPM_P1;HPM_P2
2022/04/01 00:00:58;;;;;;;9.63;4.45;;;;;;;-149.78;100.00;50557.50;5090966;28;20040;-70
2022/04/01 00:03:24;;;;;;;11.35;4.88;;;;;;;-149.78;100.00;50537.94;5091828;28;20058;-69
2022/04/01 00:05:50;;;;;;;9.82;4.82;;;;;;;-149.78;100.00;50534.03;5074037;28;20035;-69
2022/04/01 00:08:15;;;;;;;10.27;4.53;;;;;;;-149.78;100.00;50573.16;5091980;28;20130;-70
2022/04/01 00:10:41;;;;;;;10.90;4.63;;;;;;;-149.78;100.00;50579.00;5091975;28;20170;-69
2022/04/01 00:13:07;;;;;;;12.25;4.57;;;;;;;-149.78;100.00;50565.31;5089890;28;20036;-69
2022/04/01 00:15:33;;;;;;;10.38;4.40;;;;;;;-149.78;100.00;50518.38;5091563;28;20613;-69
2022/04/01 00:18:00;;;;;;;13.30;5.68;;;;;;;-149.78;100.00;50565.31;5088678;28;20066;-69
2022/04/01 00:20:27;;;;;;;13.90;5.10;;;;;;;-149.78;100.00;50510.56;5074654;28;20033;-69
2022/04/01 00:22:54;;;;;;;11.63;5.22;;;;;;;-149.78;100.00;50553.59;5075248;28;20024;-70
2022/04/01 00:25:20;;;;;;;12.98;5.22;;;;;;;-149.78;100.00;50522.28;5075369;28;20032;-70
2022/04/01 00:27:46;;;;;;;12.35;4.50;;;;;;;-149.78;100.00;50573.16;5074092;28;20032;-69
2022/04/01 00:30:11;;;;;;;13.02;5.35;;;;;;;-149.78;100.00;50590.75;5075015;28;20144;-69
2022/04/01 00:32:37;;;;;;;13.98;5.22;;;;;;;-149.78;100.00;50506.66;5073807;28;20033;-69
2022/04/01 00:35:04;;;;;;;9.20;4.03;;;;;;;-149.78;100.00;50549.69;5075042;28;20042;-69
2022/04/01 00:37:30;;;;;;;8.98;4.43;;;;;;;-149.78;100.00;50545.75;5075225;28;20032;-69
2022/04/01 00:39:57;;;;;;;12.85;4.88;;;;;;;-149.78;100.00;50557.50;5074888;28;20078;-69
2022/04/01 00:42:23;;;;;;;11.18;5.38;;;;;;;-149.78;100.00;50551.63;5074960;28;20036;-69
2022/04/01 00:44:48;;;;;;;18.48;5.82;;;;;;;-149.78;100.00;50573.16;5074835;28;20029;-69
2022/04/01 00:47:15;;;;;;;13.05;5.18;;;;;;;-149.78;100.00;50555.53;5074799;28;20111;-69
2022/04/01 00:49:43;;;;;;;10.18;4.68;;;;;;;-149.78;100.00;50588.78;5074761;28;20052;-69
2022/04/01 00:52:11;;;;;;;11.65;4.95;;;;;;;-149.78;100.00;50535.97;5074990;28;20109;-69
2022/04/01 00:54:37;;;;;;;14.00;5.22;;;;;;;-149.78;100.00;50573.16;5093595;28;20129;-69
2022/04/01 00:57:04;;;;;;;11.98;4.80;;;;;;;-149.78;100.00;50555.53;5095071;28;20416;-69
2022/04/01 00:59:30;;;;;;;12.77;5.45;;;;;;;-149.78;100.00;50553.59;5093698;28;20105;-69
2022/04/01 01:01:56;;;;;;;15.85;5.65;;;;;;;-149.78;100.00;50561.41;5093722;28;20044;-69
2022/04/01 01:04:22;;;;;;;17.80;6.75;;;;;;;-149.78;100.00;50584.88;5076948;28;20047;-69
2022/04/01 01:06:50;;;;;;;13.88;6.40;;;;;;;-149.78;100.00;50584.88;5094827;28;20032;-71
2022/04/01 01:09:16;;;;;;;16.38;6.38;;;;;;;-149.78;100.00;50549.69;5093663;28;20097;-70
2022/04/01 01:11:45;;;;;;;13.32;5.57;;;;;;;-149.78;100.00;50557.50;5093522;28;20027;-70
2022/04/01 01:14:13;;;;;;;13.88;5.53;;;;;;;-149.78;100.00;50555.53;5094846;28;20112;-69
2022/04/01 01:16:42;;;;;;;13.15;5.50;;;;;;;-149.78;100.00;50557.50;5093363;28;20036;-69
2022/04/01 01:19:11;;;;;;;12.10;5.18;;;;;;;-149.78;100.00;50571.19;5081144;28;20508;-69
2022/04/01 01:21:39;;;;;;;11.25;4.90;;;;;;;-149.78;100.00;50553.59;5074408;28;20036;-69
2022/04/01 01:24:07;;;;;;;12.13;4.95;;;;;;;-149.78;100.00;50535.97;5056651;28;20044;-69
2022/04/01 01:26:35;;;;;;;14.05;5.07;;;;;;;-149.78;100.00;50557.50;5074621;28;20386;-69
2022/04/01 01:29:03;;;;;;;13.27;5.70;;;;;;;-149.78;100.00;50575.09;5074215;28;20036;-69
2022/04/01 01:31:29;;;;;;;11.70;4.93;;;;;;;-149.78;100.00;50569.22;5072055;28;20064;-69
2022/04/01 01:33:56;;;;;;;10.77;5.07;;;;;;;-149.78;100.00;50573.16;5073057;28;20144;-69
2022/04/01 01:36:23;;;;;;;13.18;4.95;;;;;;;-149.78;100.00;50553.59;5072997;28;20032;-69
2022/04/01 01:38:49;;;;;;;16.52;5.38;;;;;;;-149.78;100.00;50539.91;5073102;28;20064;-69
2022/04/01 01:41:15;;;;;;;12.10;4.95;;;;;;;-149.78;100.00;50573.16;5074108;28;20040;-69
2022/04/01 01:43:41;;;;;;;12.70;4.90;;;;;;;-149.78;100.00;50553.59;5074012;28;20098;-69
2022/04/01 01:46:08;;;;;;;12.55;5.13;;;;;;;-149.78;100.00;50545.75;5072855;28;20024;-68
2022/04/01 01:48:34;;;;;;;12.57;4.63;;;;;;;-149.78;100.00;50573.16;5073845;28;20035;-69
2022/04/01 01:56:29;;;;;;;9.95;5.00;;;;;;;-149.78;100.00;50551.63;5073494;28;20399;-69
2022/04/01 01:58:57;;;;;;;10.60;4.57;;;;;;;-149.78;100.00;50559.47;5073368;28;20047;-69
2022/04/01 02:01:23;;;;;;;12.15;4.93;;;;;;;-149.78;100.00;50557.50;5073455;28;20024;-69
2022/04/01 02:03:49;;;;;;;11.30;4.00;;;;;;;-149.78;100.00;50588.78;5073485;28;20032;-69
2022/04/01 02:06:15;;;;;;;8.27;3.80;;;;;;;-149.78;100.00;50530.13;5055750;28;20040;-69
2022/04/01 02:08:41;;;;;;;12.65;4.65;;;;;;;-149.78;100.00;50559.47;5055457;28;20036;-68
2022/04/01 02:11:08;;;;;;;12.07;4.82;;;;;;;-149.78;100.00;50545.75;5073301;28;20025;-69
2022/04/01 02:13:34;;;;;;;9.70;4.10;;;;;;;-149.78;100.00;50565.31;5071970;28;20039;-69
2022/04/01 02:16:01;;;;;;;9.38;4.28;;;;;;;-149.78;100.00;50543.81;5071969;28;20388;-69
2022/04/01 02:18:27;;;;;;;8.77;4.03;;;;;;;-149.78;100.00;50545.75;5075304;28;20028;-69
2022/04/01 02:20:53;;;;;;;8.88;4.10;;;;;;;-149.78;100.00;50543.81;5073455;28;20071;-69
2022/04/01 02:23:19;;;;;;;11.88;4.30;;;;;;;-149.78;100.00;50575.09;5073265;28;20068;-69
2022/04/01 02:25:48;;;;;;;9.30;4.25;;;;;;;-149.78;100.00;50573.16;5071924;28;20430;-69
2022/04/01 02:28:14;;;;;;;12.70;4.30;;;;;;;-149.78;100.00;50584.88;5071939;28;20158;-69
2022/04/01 02:30:41;;;;;;;9.85;4.22;;;;;;;-149.78;100.00;50547.72;5055091;28;20827;-69
2022/04/01 02:33:06;;;;;;;10.75;4.10;;;;;;;-149.78;100.00;50580.97;5071870;28;20464;-69
2022/04/01 02:35:33;;;;;;;10.63;4.63;;;;;;;-149.78;100.00;50537.94;5072904;28;20036;-69
2022/04/01 02:37:59;;;;;;;12.60;4.55;;;;;;;-149.78;100.00;50571.19;5072948;28;20048;-70
2022/04/01 02:40:24;;;;;;;12.20;4.43;;;;;;;-149.78;100.00;50573.16;5072981;28;20036;-69
2022/04/01 02:42:53;;;;;;;10.27;4.25;;;;;;;-149.78;100.00;50557.50;5084202;28;20360;-69
2022/04/01 02:45:23;;;;;;;12.95;4.53;;;;;;;-149.78;100.00;50565.31;5091683;28;20032;-69
2022/04/01 02:47:49;;;;;;;12.60;4.70;;;;;;;-149.78;100.00;50561.41;5091679;28;20043;-69
2022/04/01 02:50:16;;;;;;;12.15;4.90;;;;;;;-149.78;100.00;50537.94;5092871;28;20027;-69
2022/04/01 02:52:42;;;;;;;11.80;5.03;;;;;;;-149.78;100.00;50530.13;5085882;28;20388;-69
2022/04/01 02:55:08;;;;;;;12.88;4.13;;;;;;;-149.78;100.00;50584.88;5072547;28;20044;-69
2022/04/01 02:57:34;;;;;;;12.75;4.80;;;;;;;-149.78;100.00;50534.03;5072356;28;20357;-69
2022/04/01 03:00:00;;;;;;;10.63;4.28;;;;;;;-149.78;100.00;50545.75;5086152;28;20101;-69
2022/04/01 03:02:26;;;;;;;10.10;3.97;;;;;;;-149.78;100.00;50579.00;5092681;28;20050;-69
2022/04/01 03:04:52;;;;;;;11.10;4.50;;;;;;;-149.78;100.00;50526.22;5092540;28;20060;-69
2022/04/01 03:07:18;;;;;;;10.82;4.38;;;;;;;-149.78;100.00;50561.41;5070198;28;20071;-69
2022/04/01 03:09:44;;;;;;;10.32;4.60;;;;;;;-149.78;100.00;50537.94;5072252;28;20144;-69
2022/04/01 03:12:11;;;;;;;12.93;4.93;;;;;;;-149.78;100.00;50561.41;5071091;28;20033;-69
2022/04/01 03:14:38;;;;;;;11.00;4.25;;;;;;;-149.78;100.00;50545.75;5072255;28;20064;-70
2022/04/01 03:17:03;;;;;;;13.05;4.57;;;;;;;-149.78;100.00;50549.69;5072373;28;20587;-69
2022/04/01 03:19:29;;;;;;;11.93;4.18;;;;;;;-149.78;100.00;50584.88;5070831;28;20032;-69
2022/04/01 03:21:55;;;;;;;10.77;4.07;;;;;;;-149.78;100.00;50561.41;5071007;28;20037;-69
2022/04/01 03:24:21;;;;;;;9.75;4.13;;;;;;;-149.78;100.00;50530.13;5054370;28;20032;-69
2022/04/01 03:26:47;;;;;;;10.15;3.65;;;;;;;-149.78;100.00;50555.53;5076925;28;20536;-69
2022/04/01 03:29:12;;;;;;;13.25;3.80;;;;;;;-149.78;100.00;50545.75;5092365;28;20036;-69
2022/04/01 03:31:40;;;;;;;8.15;3.38;;;;;;;-149.78;100.00;50557.50;5062011;28;20471;-69
2022/04/01 03:34:06;;;;;;;11.07;3.63;;;;;;;-149.78;100.00;50577.06;5071778;28;20093;-69
2022/04/01 03:36:33;;;;;;;8.55;3.75;;;;;;;-149.78;100.00;50537.94;5070536;28;20506;-69
2022/04/01 03:38:59;;;;;;;8.60;3.47;;;;;;;-149.78;100.00;50588.78;5070380;28;20039;-69
2022/04/01 03:41:25;;;;;;;6.35;2.70;;;;;;;-149.78;100.00;50555.53;5070049;28;20052;-68
2022/04/01 03:43:54;;;;;;;4.10;2.50;;;;;;;-149.78;100.00;50555.53;5071326;28;20032;-68
2022/04/01 03:46:24;;;;;;;6.35;2.53;;;;;;;-149.78;100.00;50565.31;5071572;28;20064;-68
2022/04/01 03:49:05;;;;;;;7.30;2.47;;;;;;;-149.78;100.00;50545.75;5071373;28;20031;-68
2022/04/01 03:51:31;;;;;;;5.70;2.42;;;;;;;-149.78;100.00;50620.09;5071366;28;20036;-68
2022/04/01 03:54:02;;;;;;;5.05;2.30;;;;;;;-149.78;100.00;50588.78;5071886;28;20040;-68
2022/04/01 03:56:31;;;;;;;7.18;2.65;;;;;;;-149.78;100.00;50580.97;5075462;28;20047;-68
2022/04/01 03:59:08;;;;;;;5.28;2.53;;;;;;;-149.78;100.00;50598.56;5075359;28;20024;-68
2022/04/01 04:01:38;;;;;;;6.20;2.42;;;;;;;-149.78;100.00;50565.31;5075377;28;20119;-68
2022/04/01 04:04:05;;;;;;;4.70;2.65;;;;;;;-149.78;100.00;50565.31;5074213;28;20093;-68
2022/04/01 04:06:34;;;;;;;7.25;2.60;;;;;;;-149.78;100.00;50561.41;5075158;28;20115;-68
2022/04/01 04:09:01;;;;;;;5.35;2.53;;;;;;;-149.78;100.00;50588.78;5075470;28;20112;-68
2022/04/01 04:11:32;;;;;;;4.70;2.15;;;;;;;-149.78;100.00;50580.97;5075464;28;20105;-68
2022/04/01 04:14:01;;;;;;;5.85;1.77;;;;;;;-149.78;100.00;50561.41;5075632;28;20033;-68
2022/04/01 04:16:44;;;;;;;5.10;2.25;;;;;;;-149.78;100.00;50547.72;5075597;28;20040;-68
2022/04/01 04:19:25;;;;;;;3.88;2.15;;;;;;;-149.78;100.00;50580.97;5074368;28;20399;-68
2022/04/01 04:22:09;;;;;;;7.22;2.25;;;;;;;-149.78;100.00;50573.16;5075445;28;20025;-68
2022/04/01 04:24:53;;;;;;;3.97;2.13;;;;;;;-149.78;100.00;50534.03;5075420;28;20028;-68
2022/04/01 04:27:25;;;;;;;4.82;2.28;;;;;;;-149.78;100.00;50549.69;5084756;28;20050;-68
2022/04/01 04:29:52;;;;;;;5.22;2.40;;;;;;;-149.78;100.00;50561.41;5093897;28;20131;-68
2022/04/01 04:32:33;;;;;;;7.50;2.80;;;;;;;-149.78;100.00;50579.00;5095539;28;20044;-68
2022/04/01 04:35:04;;;;;;;5.22;2.13;;;;;;;-149.78;100.00;50573.16;5095404;28;20047;-68
2022/04/01 04:37:33;;;;;;;8.20;2.70;;;;;;;-149.78;100.00;50557.50;5095440;28;20028;-68
2022/04/01 04:39:59;;;;;;;6.45;2.22;;;;;;;-149.78;100.00;50588.78;5095376;28;20028;-68
2022/04/01 04:42:27;;;;;;;7.10;2.72;;;;;;;-149.78;100.00;50535.97;5095308;28;20044;-68
2022/04/01 04:44:54;;;;;;;6.38;2.58;;;;;;;-149.78;100.00;50582.94;5094136;28;20054;-68
2022/04/01 04:47:32;;;;;;;7.63;2.88;;;;;;;-149.78;100.00;50565.31;5095393;28;20580;-67
2022/04/01 04:49:58;;;;;;;6.32;2.60;;;;;;;-149.78;100.00;50584.88;5095234;28;20035;-67
2022/04/01 04:52:32;;;;;;;5.55;2.35;;;;;;;-149.78;100.00;50537.94;5095172;28;20040;-68
2022/04/01 04:55:03;;;;;;;4.70;2.40;;;;;;;-149.78;100.00;50549.69;5095029;28;20024;-68
2022/04/01 04:57:29;;;;;;;7.93;2.85;;;;;;;-149.78;100.00;50565.31;5093857;28;20089;-67
2022/04/01 04:59:58;;;;;;;5.78;2.65;;;;;;;-149.78;100.00;50537.94;5095193;28;20040;-67
2022/04/01 05:02:57;;;;;;;6.80;2.45;;;;;;;-149.78;100.00;50565.31;5095171;28;20111;-67
2022/04/01 05:05:28;;;;;;;6.38;2.30;;;;;;;-149.78;100.00;50557.50;5092336;28;20381;-68
2022/04/01 05:08:12;;;;;;;4.38;2.42;;;;;;;-149.78;100.00;50565.31;5094819;28;20032;-68
2022/04/01 05:10:59;;;;;;;5.30;2.33;;;;;;;-149.78;100.00;50559.47;5093767;28;20103;-67
2022/04/01 05:14:11;;;;;;;5.93;2.20;;;;;;;-149.78;100.00;50596.63;5094926;28;20040;-67
2022/04/01 05:17:13;;;;;;;3.92;2.00;;;;;;;-149.78;100.00;50561.41;5094794;28;20032;-67
2022/04/01 05:19:40;;;;;;;7.80;2.60;;;;;;;-149.78;100.00;50565.31;5094941;28;20024;-67
2022/04/01 05:22:08;;;;;;;6.72;2.55;;;;;;;-149.78;100.00;50530.13;5075621;28;20432;-68
2022/04/01 05:24:50;;;;;;;5.57;2.40;;;;;;;-149.78;100.00;50569.22;5092894;28;20042;-68
2022/04/01 05:27:28;;;;;;;;;;;;;;;-149.78;100.00;50557.50;5094708;28;20032;-68
2022/04/01 05:30:13;;;;;;;6.80;2.80;;;;;;;-149.78;100.00;50569.22;5094430;28;20364;-68
2022/04/01 05:32:47;;;;;;;4.50;2.90;;;;;;;-149.78;100.00;50580.97;5093108;28;20042;-68
2022/04/01 05:35:15;;;;;;;7.97;3.00;;;;;;;-149.78;100.00;50563.38;5094261;28;20067;-68
2022/04/01 05:37:42;;;;;;;7.78;2.78;;;;;;;-149.78;100.00;50580.97;5084265;28;20028;-68
2022/04/01 05:40:09;;;;;;;6.97;2.30;;;;;;;-149.78;100.00;50577.06;5076882;28;20548;-67
2022/04/01 05:42:36;;;;;;;7.45;3.28;;;;;;;-149.78;100.00;50573.16;5082490;28;20394;-67
2022/04/01 05:45:03;;;;;;;6.78;3.00;;;;;;;-149.78;100.00;50565.31;5080866;28;20028;-67
2022/04/01 05:47:32;;;;;;;8.77;3.28;;;;;;;-149.78;100.00;50620.09;5081064;28;20028;-67
2022/04/01 05:49:59;;;;;;;6.78;3.42;;;;;;;-149.78;100.00;50577.06;5077949;28;20037;-67
2022/04/01 05:52:26;;;;;;;8.18;3.17;;;;;;;-149.78;100.00;50577.06;5082930;28;20046;-68
2022/04/01 05:54:52;;;;;;;8.15;3.25;;;;;;;-149.78;100.00;50549.69;5083285;28;20146;-68
2022/04/01 05:57:19;;;;;;;8.52;3.53;;;;;;;-149.78;100.00;50577.06;5081968;28;20111;-67
2022/04/01 05:59:45;;;;;;;7.93;3.33;;;;;;;-149.78;100.00;50600.53;5083592;28;20569;-67
2022/04/01 06:02:26;;;;;;;8.30;3.53;;;;;;;-149.78;100.00;50573.16;5079140;28;20028;-67
2022/04/01 06:05:15;;;;;;;8.13;3.08;;;;;;;-149.78;100.00;50537.94;5086518;28;20024;-67
2022/04/01 06:08:01;;;;;;;12.70;3.83;;;;;;;-149.78;100.00;50600.53;5081206;28;20028;-67
2022/04/01 06:10:34;;;;;;;11.10;3.97;;;;;;;-149.78;100.00;50573.16;5080655;28;20119;-67
2022/04/01 06:13:09;;;;;;;10.20;3.72;;;;;;;-149.78;100.00;50555.53;5079700;28;20042;-67
2022/04/01 06:16:02;;;;;;;11.98;4.18;;;;;;;-149.78;100.00;50569.22;5081404;28;20029;-67
2022/04/01 06:19:06;;;;;;;10.32;4.20;;;;;;;-149.78;100.00;50592.72;5083597;28;20555;-68
2022/04/01 06:21:42;;;;;;;11.00;4.45;;;;;;;-149.78;100.00;50553.59;5093488;28;20028;-67
2022/04/01 06:24:33;;;;;;;12.52;4.40;;;;;;;-149.78;100.00;50580.97;5093535;28;20032;-67
2022/04/01 06:27:03;;;;;;;10.57;4.25;;;;;;;-149.78;100.00;50551.63;5088865;28;20187;-68
2022/04/01 06:29:35;;;;;;;10.55;3.65;;;;;;;-149.78;100.00;50553.59;5054470;28;20052;-68
2022/04/01 06:32:08;;;;;;;11.07;4.13;;;;;;;-149.78;100.00;50575.09;5080152;28;20476;-68
2022/04/01 06:35:01;;;;;;;6.60;3.28;;;;;;;-149.78;100.00;50555.53;5073465;28;20029;-68
2022/04/01 06:37:29;;;;;;;12.52;4.00;;;;;;;-149.78;100.00;50604.44;5071951;28;20032;-67
2022/04/01 06:40:10;;;;;;;10.65;3.90;;;;;;;-149.78;100.00;50559.47;5074762;28;20387;-68
2022/04/01 06:42:37;;;;;;;6.97;3.53;;;;;;;-149.78;100.00;50561.41;5076212;28;20123;-68
2022/04/01 06:45:10;;;;;;;11.90;4.32;;;;;;;-149.78;100.00;50588.78;5077213;28;20380;-67
2022/04/01 06:47:40;;;;;;;11.02;3.80;;;;;;;-149.78;100.00;50575.09;5072734;28;20028;-71
2022/04/01 06:50:07;;;;;;;8.70;4.10;;;;;;;-149.78;100.00;50592.72;5071367;28;20472;-67
2022/04/01 06:52:33;;;;;;;9.35;3.97;;;;;;;-149.78;100.00;50541.84;5070920;28;20048;-68
2022/04/01 06:54:59;;;;;;;7.43;3.78;;;;;;;-149.78;100.00;50532.06;5071121;28;20063;-67
2022/04/01 06:57:24;;;;;;;8.52;3.65;;;;;;;-149.78;100.00;50584.88;5077440;28;20029;-67
2022/04/01 06:59:51;;;;;;;9.35;3.35;;;;;;;-149.78;100.00;50569.22;5075183;28;20028;-67
2022/04/01 07:02:17;;;;;;;14.82;4.03;;;;;;;-149.78;100.00;50582.94;5057441;28;20471;-68
2022/04/01 07:04:43;;;;;;;12.45;3.78;;;;;;;-149.78;100.00;50547.72;5077915;28;20036;-68
2022/04/01 07:07:09;;;;;;;11.43;4.40;;;;;;;-149.78;100.00;50543.81;5079085;28;20384;-68
2022/04/01 07:09:38;;;;;;;8.65;4.10;;;;;;;-149.78;100.00;50584.88;5069260;28;20028;-68
2022/04/01 07:12:04;;;;;;;8.18;3.70;;;;;;;-149.78;100.00;50582.94;5078095;28;20039;-68
2022/04/01 07:14:31;;;;;;;9.43;3.50;;;;;;;-149.78;100.00;50541.84;5080837;28;20032;-68
2022/04/01 07:16:58;;;;;;;9.23;3.85;;;;;;;-149.78;100.00;50580.97;5079597;28;20029;-68
2022/04/01 07:19:24;;;;;;;7.60;3.90;;;;;;;-149.78;100.00;50557.50;5076386;28;20426;-68
2022/04/01 07:21:51;;;;;;;10.32;3.80;;;;;;;-149.78;100.00;50522.28;5079115;28;20027;-68
2022/04/01 07:24:17;;;;;;;9.75;3.80;;;;;;;-149.78;100.00;50557.50;5080427;28;20032;-68
2022/04/01 07:26:45;;;;;;;7.85;3.60;;;;;;;-149.78;100.00;50534.03;5079627;28;20115;-68
2022/04/01 07:29:12;;;;;;;7.97;3.95;;;;;;;-149.78;100.00;50575.09;5082133;28;20081;-69
2022/04/01 07:34:30;;;;;;;8.32;3.78;;;;;;;-149.78;100.00;50549.69;5082402;28;20032;-69
2022/04/01 07:36:55;;;;;;;7.13;3.60;;;;;;;-149.78;100.00;50543.81;5054079;28;20040;-68
2022/04/01 07:39:22;;;;;;;13.02;4.50;;;;;;;-149.78;100.00;50565.31;5071474;28;20476;-68
2022/04/01 07:41:47;;;;;;;12.23;3.42;;;;;;;-149.78;100.00;50596.63;5072310;28;20173;-69
2022/04/01 07:44:13;;;;;;;8.00;3.70;;;;;;;-149.78;100.00;50553.59;5092277;28;20036;-69
2022/04/01 07:46:39;;;;;;;9.15;3.50;;;;;;;-149.78;100.00;50512.50;5092250;28;20043;-68
2022/04/01 07:49:05;;;;;;;13.75;4.63;;;;;;;-149.78;100.00;50545.75;5076062;28;20041;-69
2022/04/01 07:51:30;;;;;;;16.15;4.80;;;;;;;-149.78;100.00;50506.66;5071835;28;20032;-69
2022/04/01 07:53:56;;;;;;;6.45;3.60;;;;;;;-149.78;100.00;50530.13;5084331;28;20135;-71
2022/04/01 07:56:21;;;;;;;9.05;3.47;;;;;;;-149.78;100.00;50532.06;5074834;28;20345;-72
2022/04/01 07:58:47;;;;;;;9.73;3.92;;;;;;;-149.78;100.00;50547.72;5069819;28;20528;-72
2022/04/01 08:01:13;;;;;;;12.70;4.28;;;;;;;-149.78;100.00;50549.69;5077157;28;20147;-72
2022/04/01 08:03:44;;;;;;;13.32;5.22;;;;;;;-149.78;100.00;50526.22;5077209;28;20115;-73
2022/04/01 08:06:10;;;;;;;11.77;5.13;;;;;;;-149.78;100.00;50522.28;5057461;28;20028;-71
2022/04/01 08:08:35;;;;;;;10.75;4.85;;;;;;;-149.78;100.00;50514.47;5078805;28;20383;-71
2022/04/01 08:11:01;;;;;;;11.90;4.47;;;;;;;-149.78;100.00;50518.38;5075127;28;20403;-71
2022/04/01 08:13:26;;;;;;;9.85;4.22;;;;;;;-149.78;100.00;50534.03;5073921;28;20033;-71
2022/04/01 08:15:52;;;;;;;10.80;4.07;;;;;;;-149.78;100.00;50491.00;5074739;28;20488;-71
2022/04/01 08:18:19;;;;;;;12.15;5.18;;;;;;;-149.78;100.00;50571.19;5077947;28;20119;-71
2022/04/01 08:20:45;;;;;;;6.55;3.53;;;;;;;-149.78;100.00;50526.22;5087600;28;20043;-71
2022/04/01 08:23:11;;;;;;;10.32;4.07;;;;;;;-149.78;100.00;50532.06;5091823;28;20081;-70
2022/04/01 08:25:37;;;;;;;10.00;4.15;;;;;;;-149.78;100.00;50557.50;5079577;28;20597;-71
2022/04/01 08:28:03;;;;;;;11.63;4.35;;;;;;;-149.78;100.00;50541.84;5071875;28;20510;-71
2022/04/01 08:30:29;;;;;;;8.52;4.13;;;;;;;-149.78;100.00;50494.91;5086605;28;20102;-71
2022/04/01 08:32:55;;;;;;;6.90;3.25;;;;;;;-149.78;100.00;50518.38;5076960;28;20036;-71
2022/04/01 08:35:20;;;;;;;7.05;3.60;;;;;;;-149.78;100.00;50498.81;5080105;28;20036;-71
2022/04/01 08:37:46;;;;;;;8.85;3.28;;;;;;;-149.78;100.00;50514.47;5067758;28;20493;-74
2022/04/01 08:40:12;;;;;;;5.50;3.33;;;;;;;-149.78;100.00;50537.94;5079800;28;20064;-72
2022/04/01 08:42:45;;;;;;;12.40;3.95;;;;;;;-149.78;100.00;50537.94;5083086;28;20367;-72
2022/04/01 08:45:11;;;;;;;8.18;3.20;;;;;;;-149.78;100.00;50530.13;5086506;28;20060;-72
2022/04/01 08:47:38;;;;;;;6.72;3.28;;;;;;;-149.78;100.00;50518.38;5087582;28;20517;-72
2022/04/01 08:50:05;;;;;;;7.22;3.63;;;;;;;-149.78;100.00;50518.38;5083280;28;20040;-72
2022/04/01 08:52:30;;;;;;;7.10;3.13;;;;;;;-149.78;100.00;50530.13;5092078;28;20028;-72
2022/04/01 08:55:05;;;;;;;9.15;3.08;;;;;;;-149.78;100.00;50502.75;5082622;28;20452;-72
2022/04/01 08:57:39;;;;;;;7.68;3.10;;;;;;;-149.78;100.00;50514.47;5083356;28;20119;-72
2022/04/01 09:00:25;;;;;;;11.20;3.60;;;;;;;-149.78;100.00;50580.97;5089646;28;20036;-73
2022/04/01 09:03:08;;;;;;;8.60;3.08;;;;;;;-149.78;100.00;50506.66;5079055;28;20422;-73
2022/04/01 09:05:35;;;;;;;4.03;2.38;;;;;;;-149.78;100.00;50543.81;5081935;28;20035;-72
2022/04/01 09:08:08;;;;;;;4.90;2.47;;;;;;;-149.78;100.00;50541.84;5089405;28;20032;-73
2022/04/01 09:10:53;;;;;;;5.88;2.67;;;;;;;-149.78;100.00;50561.41;5073430;28;20455;-73
2022/04/01 09:13:20;;;;;;;8.70;3.30;;;;;;;-149.78;100.00;50553.59;5084589;28;20032;-73
2022/04/01 09:15:46;;;;;;;8.65;2.90;;;;;;;-149.78;100.00;50534.03;5080876;28;20105;-72
2022/04/01 09:18:12;;;;;;;5.45;2.88;;;;;;;-149.78;100.00;50516.44;5091085;28;20430;-72
2022/04/01 09:20:51;;;;;;;7.20;2.72;;;;;;;-149.78;100.00;50535.97;5084397;28;20036;-72
2022/04/01 09:23:23;;;;;;;5.50;3.03;;;;;;;-149.78;100.00;50577.06;5083021;28;20107;-72
2022/04/01 09:25:50;;;;;;;5.32;3.50;;;;;;;-149.78;100.00;50526.22;5074052;28;20025;-72
2022/04/01 09:28:30;;;;;;;8.32;3.95;;;;;;;-149.78;100.00;50557.50;5091736;28;20031;-72
2022/04/01 09:31:01;;;;;;;6.20;3.25;;;;;;;-149.78;100.00;50526.22;5085975;28;20052;-72
2022/04/01 09:33:47;;;;;;;6.60;2.90;;;;;;;-149.78;100.00;50551.63;5079003;28;20043;-71
2022/04/01 09:36:16;;;;;;;5.93;2.25;;;;;;;-149.78;100.00;50518.38;5086903;28;20036;-71
2022/04/01 09:39:09;;;;;;;6.90;2.45;;;;;;;-149.78;100.00;50491.00;5093382;28;20032;-72
2022/04/01 09:41:54;;;;;;;4.25;2.30;;;;;;;-149.78;100.00;50559.47;5096030;28;20111;-72
2022/04/01 09:44:23;;;;;;;5.15;1.83;;;;;;;-149.78;100.00;50491.00;5089516;28;20036;-72
2022/04/01 09:47:02;;;;;;;9.25;1.90;;;;;;;-149.78;100.00;50412.78;5088118;28;20078;-72
2022/04/01 09:49:32;;;;;;;3.30;1.92;;;;;;;-149.78;100.00;50432.31;5085262;28;20437;-72
2022/04/01 09:51:58;;;;;;;5.25;1.98;;;;;;;-149.78;100.00;50475.34;5076805;28;20115;-70
2022/04/01 09:54:25;;;;;;;3.53;2.08;;;;;;;-149.78;100.00;50471.44;5092531;28;20040;-70
2022/04/01 09:56:54;;;;;;;5.55;2.28;;;;;;;-149.78;100.00;50502.75;5093632;28;20028;-71
2022/04/01 09:59:23;;;;;;;4.47;2.08;;;;;;;-149.78;100.00;50475.34;5093965;28;20123;-68
2022/04/01 10:01:48;;;;;;;5.32;2.47;;;;;;;-149.78;100.00;50455.81;5092676;28;20093;-70
2022/04/01 10:04:14;;;;;;;6.07;2.10;;;;;;;-149.78;100.00;50479.28;5092710;28;20044;-70
2022/04/01 10:06:41;;;;;;;8.02;2.53;;;;;;;-149.78;100.00;50479.28;5092638;28;20067;-71
2022/04/01 10:09:10;;;;;;;10.00;2.70;;;;;;;-149.78;100.00;50471.44;5093797;28;20067;-70
2022/04/01 10:11:41;;;;;;;3.65;2.05;;;;;;;-149.78;100.00;50406.91;5093515;28;20460;-70
2022/04/01 10:14:20;;;;;;;8.07;2.25;;;;;;;-149.78;100.00;50440.16;5089260;28;20067;-72
2022/04/01 10:16:48;;;;;;;3.42;2.08;;;;;;;-149.78;100.00;50412.78;5093680;28;20036;-69
2022/04/01 10:19:25;;;;;;;5.00;2.10;;;;;;;-149.78;100.00;50412.78;5093769;28;20040;-71
2022/04/01 10:21:51;;;;;;;6.15;2.15;;;;;;;-149.78;100.00;50461.66;5092380;28;20505;-70
2022/04/01 10:24:32;;;;;;;4.78;2.10;;;;;;;-149.78;100.00;50410.81;5075419;28;20131;-70
2022/04/01 10:27:04;;;;;;;5.45;2.40;;;;;;;-149.78;100.00;50491.00;5086999;28;20064;-72
2022/04/01 10:29:32;;;;;;;4.82;2.20;;;;;;;-149.78;100.00;50483.19;5073165;28;20433;-72
2022/04/01 10:32:23;;;;;;;4.60;2.40;;;;;;;-149.78;100.00;50491.00;5083265;28;20080;-71
2022/04/01 10:34:50;;;;;;;8.00;2.42;;;;;;;-149.78;100.00;50463.63;5084386;28;20020;-71
2022/04/01 10:37:16;;;;;;;5.47;2.33;;;;;;;-149.78;100.00;50502.75;5084737;28;20111;-71
2022/04/01 10:39:55;;;;;;;6.32;3.45;;;;;;;-149.78;100.00;50463.63;5085365;28;20082;-72
2022/04/01 10:42:30;;;;;;;7.35;2.92;;;;;;;-149.78;100.00;50465.56;5083725;28;20055;-72
2022/04/01 10:45:03;;;;;;;4.60;2.58;;;;;;;-149.78;100.00;50463.63;5083531;28;20031;-71
2022/04/01 10:53:31;;;;;;;6.00;2.42;;;;;;;-149.78;100.00;50455.81;5084754;28;20042;-72
2022/04/01 10:56:22;;;;;;;4.93;2.35;;;;;;;-149.78;100.00;50401.03;5084187;28;20036;-73
2022/04/01 10:59:06;;;;;;;3.90;2.10;;;;;;;-149.78;100.00;50408.84;5084160;28;20032;-73
2022/04/01 11:01:35;;;;;;;2.95;2.03;;;;;;;-149.78;100.00;50438.19;5084035;28;20017;-71
2022/04/01 11:04:12;;;;;;;5.85;2.05;;;;;;;-149.78;100.00;50451.88;5081934;28;20571;-71
2022/04/01 11:06:56;;;;;;;3.10;1.30;;;;;;;-149.78;100.00;50438.19;5083104;28;20050;-71
2022/04/01 11:09:47;;;;;;;5.72;1.65;;;;;;;-149.78;100.00;50447.97;5084601;28;20032;-68
2022/04/01 11:12:15;;;;;;;3.50;1.50;;;;;;;-149.78;100.00;50410.81;5083574;28;20040;-72
2022/04/01 11:14:56;;;;;;;3.95;1.67;;;;;;;-149.78;100.00;50420.59;5082483;28;20051;-69
2022/04/01 11:17:25;;;;;;;3.75;1.40;;;;;;;-149.78;100.00;50459.72;5082817;28;20043;-69
2022/04/01 11:20:09;;;;;;;4.53;1.40;;;;;;;-149.78;100.00;50381.47;5082936;28;20421;-69
2022/04/01 11:22:45;;;;;;;4.20;1.15;;;;;;;-149.78;100.00;50412.78;5081706;28;20388;-68
2022/04/01 11:25:33;;;;;;;4.50;1.65;;;;;;;-149.78;100.00;50440.16;5081797;28;20534;-71
2022/04/01 11:28:14;;;;;;;2.55;1.30;;;;;;;-149.78;100.00;50424.50;5081434;28;20016;-68
2022/04/01 11:30:40;;;;;;;2.63;1.40;;;;;;;-149.78;100.00;50416.69;5081817;28;20050;-71
2022/04/01 11:33:09;;;;;;;3.47;1.63;;;;;;;-149.78;100.00;50479.28;5082061;28;20132;-71
2022/04/01 11:35:39;;;;;;;1.92;1.08;;;;;;;-149.78;100.00;50459.72;5082734;28;20514;-71